Time;durP1;ratioP1;P1;durP2;ratioP2;P2;SDS_P1;SDS_P2;PMS_P1;PMS_P2;Temp;Humidity;BMP_temperature;BMP_pressure;BME280_temperature;BME280_humidity;BME280_pressure;Samples;Min_cycle;Max_cycle;Signal;HPM_P1;HPM_P2
2022/05/08 00:00:28;;;;;;;14.13;2.83;;;10.30;99.90;;;;;;5088143;28;20416;-77
2022/05/08 00:02:55;;;;;;;15.60;2.65;;;10.30;99.90;;;;;;5088113;28;20880;-77
2022/05/08 00:05:21;;;;;;;17.85;3.20;;;10.30;99.90;;;;;;5095967;28;20774;-77
2022/05/08 00:07:47;;;;;;;15.70;2.70;;;10.20;99.90;;;;;;5089715;28;20453;-77
2022/05/08 00:10:13;;;;;;;13.60;2.90;;;10.20;99.90;;;;;;5107602;28;20420;-77
2022/05/08 00:12:38;;;;;;;14.40;2.65;;;10.10;99.90;;;;;;5108334;28;20441;-77
2022/05/08 00:15:04;;;;;;;13.70;2.92;;;10.10;99.90;;;;;;5108033;28;21160;-77
2022/05/08 00:17:34;;;;;;;13.63;2.78;;;10.10;99.90;;;;;;5107962;28;20404;-76
2022/05/08 00:20:04;;;;;;;12.70;2.65;;;10.10;99.90;;;;;;5107483;28;20435;-77
2022/05/08 00:22:29;;;;;;;14.77;2.90;;;10.10;99.90;;;;;;5108050;28;20404;-77
2022/05/08 00:24:55;;;;;;;14.27;2.90;;;10.10;99.90;;;;;;5106913;28;20411;-77
2022/05/08 00:27:21;;;;;;;13.43;2.63;;;10.10;99.90;;;;;;5106864;28;20505;-77
2022/05/08 00:29:47;;;;;;;10.13;2.67;;;10.10;99.90;;;;;;5106805;28;20388;-77
2022/05/08 00:32:12;;;;;;;13.90;2.70;;;10.10;99.90;;;;;;5106883;28;20750;-77
2022/05/08 00:34:38;;;;;;;13.07;2.60;;;10.10;99.90;;;;;;5106976;28;20411;-77
2022/05/08 00:37:05;;;;;;;13.23;2.33;;;10.10;99.90;;;;;;5106401;28;20400;-76
2022/05/08 00:39:32;;;;;;;13.73;2.72;;;10.10;99.90;;;;;;5090885;28;20426;-77
2022/05/08 00:42:00;;;;;;;12.40;2.40;;;10.10;99.90;;;;;;5110680;28;20402;-77
2022/05/08 00:44:26;;;;;;;15.87;2.97;;;10.00;99.90;;;;;;5092864;28;20424;-77
2022/05/08 00:46:51;;;;;;;16.48;2.70;;;10.00;99.90;;;;;;5109934;28;20886;-77
2022/05/08 00:49:17;;;;;;;12.05;2.78;;;10.00;99.90;;;;;;5111727;28;20401;-77
2022/05/08 00:51:47;;;;;;;14.63;2.90;;;9.90;99.90;;;;;;5111494;28;20942;-77
2022/05/08 00:54:13;;;;;;;12.82;2.60;;;9.90;99.90;;;;;;5111453;28;20404;-78
2022/05/08 00:56:38;;;;;;;15.80;2.60;;;9.90;99.90;;;;;;5111176;28;20476;-77
2022/05/08 00:59:04;;;;;;;11.85;2.33;;;9.80;99.90;;;;;;5111367;28;20468;-77
2022/05/08 01:01:29;;;;;;;14.57;2.40;;;9.80;99.90;;;;;;5111614;28;20788;-78
2022/05/08 01:03:55;;;;;;;12.87;2.53;;;9.80;99.90;;;;;;5111259;28;20399;-78
2022/05/08 01:06:21;;;;;;;14.35;2.67;;;9.80;99.90;;;;;;5111129;28;20457;-78
2022/05/08 01:08:51;;;;;;;11.77;2.43;;;9.70;99.90;;;;;;5111044;28;20883;-78
2022/05/08 01:11:18;;;;;;;12.32;2.50;;;9.70;99.90;;;;;;5110454;28;20551;-77
2022/05/08 01:13:44;;;;;;;12.20;2.42;;;9.70;99.90;;;;;;5111423;28;20405;-78
2022/05/08 01:16:12;;;;;;;9.55;2.47;;;9.70;99.90;;;;;;5110803;28;20440;-77
2022/05/08 01:18:38;;;;;;;10.07;2.10;;;9.70;99.90;;;;;;5111170;28;20389;-77
2022/05/08 01:21:07;;;;;;;11.07;2.30;;;9.70;99.90;;;;;;5111069;28;20795;-77
2022/05/08 01:23:32;;;;;;;11.27;2.30;;;9.60;99.90;;;;;;5104104;28;20404;-77
2022/05/08 01:25:58;;;;;;;13.50;2.40;;;9.60;99.90;;;;;;5110494;28;20407;-77
2022/05/08 01:28:25;;;;;;;10.80;2.20;;;9.60;99.90;;;;;;5110673;28;20393;-77
2022/05/08 01:30:52;;;;;;;11.82;2.40;;;9.60;99.90;;;;;;5092491;28;20455;-77
2022/05/08 01:33:19;;;;;;;12.13;2.78;;;9.50;99.90;;;;;;5092431;28;20411;-77
2022/05/08 01:35:46;;;;;;;12.75;2.25;;;9.50;99.90;;;;;;5111051;28;21234;-77
2022/05/08 01:38:14;;;;;;;9.90;2.10;;;9.60;99.90;;;;;;5110500;28;20404;-77
2022/05/08 01:40:41;;;;;;;9.85;2.38;;;9.50;99.90;;;;;;5088693;28;20764;-77
2022/05/08 01:43:07;;;;;;;12.15;2.45;;;9.60;99.90;;;;;;5090314;28;20505;-77
2022/05/08 01:45:34;;;;;;;12.13;2.20;;;9.50;99.90;;;;;;5090289;28;20412;-77
2022/05/08 01:50:44;;;;;;;13.40;2.05;;;9.50;99.90;;;;;;5089558;28;20422;-77
2022/05/08 01:53:10;;;;;;;10.57;2.63;;;9.50;99.90;;;;;;5089455;28;21028;-77
2022/05/08 01:55:36;;;;;;;10.80;1.90;;;9.50;99.90;;;;;;5090308;28;20391;-77
2022/05/08 01:58:02;;;;;;;11.77;2.55;;;9.50;99.90;;;;;;5105539;28;20541;-77
2022/05/08 02:00:29;;;;;;;11.65;2.03;;;9.50;99.90;;;;;;5110388;28;20455;-77
2022/05/08 02:03:00;;;;;;;11.85;2.28;;;9.50;99.90;;;;;;5109834;28;20495;-77
2022/05/08 02:05:28;;;;;;;8.63;1.80;;;9.50;99.90;;;;;;5091618;28;20411;-77
2022/05/08 02:07:54;;;;;;;9.30;2.05;;;9.50;99.90;;;;;;5110232;28;20396;-77
2022/05/08 02:10:20;;;;;;;11.73;2.00;;;9.40;99.90;;;;;;5110046;28;20424;-77
2022/05/08 02:12:45;;;;;;;9.33;1.90;;;9.40;99.90;;;;;;5091515;28;20404;-77
2022/05/08 02:15:12;;;;;;;12.35;1.83;;;9.40;99.90;;;;;;5109813;28;21187;-78
2022/05/08 02:17:39;;;;;;;12.35;2.28;;;9.40;99.90;;;;;;5110070;28;20401;-77
2022/05/08 02:20:07;;;;;;;9.52;1.88;;;9.40;99.90;;;;;;5091288;28;20457;-77
2022/05/08 02:22:37;;;;;;;9.20;1.95;;;9.40;99.90;;;;;;5091379;28;20405;-77
2022/05/08 02:25:03;;;;;;;8.93;1.80;;;9.40;99.90;;;;;;5109170;28;20397;-77
2022/05/08 02:27:37;;;;;;;12.18;2.13;;;9.40;99.90;;;;;;5091277;28;20408;-77
2022/05/08 02:30:05;;;;;;;11.38;2.00;;;9.40;99.90;;;;;;5090924;28;20518;-77
2022/05/08 02:32:30;;;;;;;11.30;2.22;;;9.30;99.90;;;;;;5108700;28;20392;-77
2022/05/08 02:34:56;;;;;;;8.97;1.87;;;9.30;99.90;;;;;;5108041;28;20449;-76
2022/05/08 02:37:22;;;;;;;7.60;1.73;;;9.30;99.90;;;;;;5091172;28;20496;-77
2022/05/08 02:39:47;;;;;;;10.23;1.63;;;9.20;99.90;;;;;;5091217;28;20415;-77
2022/05/08 02:42:13;;;;;;;9.80;1.60;;;9.20;99.90;;;;;;5109304;28;20430;-77
2022/05/08 02:44:38;;;;;;;8.67;1.60;;;9.20;99.90;;;;;;5091230;28;20807;-77
2022/05/08 02:47:04;;;;;;;8.85;1.38;;;9.20;99.90;;;;;;5109132;28;20405;-77
2022/05/08 02:49:30;;;;;;;9.83;1.70;;;9.20;99.90;;;;;;5090841;28;20445;-77
2022/05/08 02:51:55;;;;;;;11.23;1.85;;;9.20;99.90;;;;;;5109217;28;20760;-77
2022/05/08 02:54:21;;;;;;;7.37;1.57;;;9.20;99.90;;;;;;5074172;28;20762;-77
2022/05/08 02:59:31;;;;;;;7.75;1.75;;;9.10;99.90;;;;;;5090620;28;21338;-77
2022/05/08 03:01:56;;;;;;;9.23;1.50;;;9.10;99.90;;;;;;5090133;28;20407;-77
2022/05/08 03:04:22;;;;;;;8.57;1.48;;;9.10;99.90;;;;;;5091047;28;20455;-77
2022/05/08 03:06:47;;;;;;;10.40;1.50;;;9.00;99.90;;;;;;5108945;28;20435;-77
2022/05/08 03:09:13;;;;;;;9.45;1.38;;;9.00;99.90;;;;;;5108995;28;20400;-77
2022/05/08 03:11:38;;;;;;;8.10;1.30;;;9.00;99.90;;;;;;5090247;28;20420;-77
2022/05/08 03:14:04;;;;;;;7.97;1.42;;;9.00;99.90;;;;;;5090301;28;20404;-77
2022/05/08 03:16:30;;;;;;;9.35;1.80;;;9.00;99.90;;;;;;5091111;28;20445;-77
2022/05/08 03:18:57;;;;;;;8.98;1.60;;;9.00;99.90;;;;;;5090333;28;20436;-77
2022/05/08 03:21:23;;;;;;;8.98;1.55;;;8.90;99.90;;;;;;5090062;28;20404;-77
2022/05/08 03:23:49;;;;;;;10.20;1.47;;;8.90;99.90;;;;;;5090646;28;20432;-77
2022/05/08 03:26:19;;;;;;;8.48;1.38;;;8.90;99.90;;;;;;5073702;28;20413;-77
2022/05/08 03:28:45;;;;;;;10.85;2.00;;;8.80;99.90;;;;;;5108457;28;20407;-77
2022/05/08 03:31:11;;;;;;;10.10;1.70;;;8.80;99.90;;;;;;5072710;28;20428;-77
2022/05/08 03:33:39;;;;;;;9.27;1.40;;;8.80;99.90;;;;;;5090162;28;20407;-77
2022/05/08 03:36:06;;;;;;;9.18;1.48;;;8.80;99.90;;;;;;5090034;28;20868;-77
2022/05/08 03:38:33;;;;;;;8.30;1.50;;;8.80;99.90;;;;;;5107770;28;20512;-77
2022/05/08 03:40:59;;;;;;;7.10;1.40;;;8.70;99.90;;;;;;5107916;28;20407;-77
2022/05/08 03:43:25;;;;;;;9.40;1.70;;;8.80;99.90;;;;;;5106412;28;20412;-77
2022/05/08 03:45:51;;;;;;;9.37;1.50;;;8.70;99.90;;;;;;5086621;28;20410;-77
2022/05/08 03:48:18;;;;;;;7.60;1.40;;;8.80;99.90;;;;;;5096167;28;20399;-77
2022/05/08 03:50:44;;;;;;;7.60;1.45;;;8.80;99.90;;;;;;5107896;28;20424;-77
2022/05/08 03:53:10;;;;;;;9.15;1.60;;;8.80;99.90;;;;;;5089203;28;20571;-77
2022/05/08 03:55:36;;;;;;;8.90;1.63;;;8.80;99.90;;;;;;5107693;28;20392;-77
2022/05/08 03:58:02;;;;;;;9.23;1.50;;;8.80;99.90;;;;;;5108178;28;20392;-77
2022/05/08 04:00:28;;;;;;;9.02;1.50;;;8.80;99.90;;;;;;5108025;28;20403;-77
2022/05/08 04:02:54;;;;;;;9.88;1.42;;;8.80;99.90;;;;;;5108422;28;20404;-77
2022/05/08 04:05:20;;;;;;;13.05;1.40;;;8.70;99.90;;;;;;5107825;28;20466;-77
2022/05/08 04:07:46;;;;;;;9.87;1.70;;;8.80;99.90;;;;;;5108065;28;20452;-77
2022/05/08 04:10:15;;;;;;;8.70;1.65;;;8.80;99.90;;;;;;5089961;28;20416;-77
2022/05/08 04:12:44;;;;;;;9.70;1.60;;;8.80;99.90;;;;;;5109343;28;20487;-77
2022/05/08 04:17:54;;;;;;;11.18;2.20;;;8.90;99.90;;;;;;5112171;28;20404;-77
2022/05/08 04:20:20;;;;;;;9.65;1.90;;;8.90;99.90;;;;;;5093898;28;20415;-77
2022/05/08 04:25:30;;;;;;;7.93;1.55;;;9.00;99.90;;;;;;5112010;28;20804;-77
2022/05/08 04:27:56;;;;;;;8.32;1.75;;;8.90;99.90;;;;;;5093764;28;20399;-77
2022/05/08 04:30:21;;;;;;;8.10;1.48;;;9.00;99.90;;;;;;5111893;28;21283;-77
2022/05/08 04:32:47;;;;;;;8.30;1.40;;;9.00;99.90;;;;;;5112015;28;20403;-77
2022/05/08 04:35:12;;;;;;;9.02;1.50;;;9.00;99.90;;;;;;5111736;28;20392;-77
2022/05/08 04:37:38;;;;;;;10.63;1.43;;;9.00;99.90;;;;;;5111789;28;20491;-78
2022/05/08 04:40:06;;;;;;;11.07;2.13;;;9.10;99.90;;;;;;5111601;28;20406;-77
2022/05/08 04:42:31;;;;;;;8.77;1.40;;;9.10;99.90;;;;;;5111655;28;20438;-77
2022/05/08 04:44:59;;;;;;;8.73;1.52;;;9.20;99.90;;;;;;5111400;28;20921;-77
2022/05/08 04:47:25;;;;;;;10.95;1.35;;;9.20;99.90;;;;;;5093227;28;20975;-77
2022/05/08 04:49:51;;;;;;;8.40;1.70;;;9.20;99.90;;;;;;5110889;28;20432;-77
2022/05/08 04:52:17;;;;;;;9.63;2.00;;;9.20;99.90;;;;;;5089996;28;20433;-77
2022/05/08 04:54:42;;;;;;;7.53;1.15;;;9.20;99.90;;;;;;5091408;28;20465;-77
2022/05/08 04:57:08;;;;;;;14.83;2.00;;;9.30;99.90;;;;;;5090830;28;20394;-77
2022/05/08 04:59:33;;;;;;;10.57;1.80;;;9.30;99.90;;;;;;5090827;28;20398;-78
2022/05/08 05:01:59;;;;;;;7.33;1.40;;;9.30;99.90;;;;;;5091056;28;20924;-77
2022/05/08 05:04:25;;;;;;;9.77;1.73;;;9.30;99.90;;;;;;5089847;28;20414;-77
2022/05/08 05:06:51;;;;;;;6.57;1.60;;;9.30;99.90;;;;;;5089719;28;20398;-77
2022/05/08 05:09:17;;;;;;;10.33;1.43;;;9.40;99.90;;;;;;5090659;28;20824;-77
2022/05/08 05:11:42;;;;;;;8.67;1.40;;;9.40;99.90;;;;;;5090857;28;20893;-77
2022/05/08 05:14:08;;;;;;;8.45;1.40;;;9.40;99.90;;;;;;5090595;28;20401;-76
2022/05/08 05:16:34;;;;;;;9.25;1.50;;;9.40;99.90;;;;;;5090911;28;20405;-77
2022/05/08 05:19:00;;;;;;;9.60;1.37;;;9.40;99.90;;;;;;5090489;28;21198;-77
2022/05/08 05:21:25;;;;;;;7.97;1.70;;;9.50;99.90;;;;;;5090651;28;20421;-77
2022/05/08 05:23:51;;;;;;;10.57;1.50;;;9.50;99.90;;;;;;5090418;28;20398;-78
2022/05/08 05:26:16;;;;;;;7.47;1.50;;;9.60;99.90;;;;;;5090350;28;20398;-77
2022/05/08 05:28:44;;;;;;;9.13;1.80;;;9.60;99.90;;;;;;5089917;28;20489;-77
2022/05/08 05:31:12;;;;;;;9.38;1.52;;;9.70;99.90;;;;;;5072195;28;20430;-77
2022/05/08 05:33:38;;;;;;;7.47;1.30;;;9.80;99.90;;;;;;5089093;28;20406;-78
2022/05/08 05:36:04;;;;;;;9.90;1.88;;;9.80;99.90;;;;;;5089697;28;20455;-78
2022/05/08 05:38:29;;;;;;;11.47;2.03;;;9.80;99.90;;;;;;5089552;28;20418;-77
2022/05/08 05:40:55;;;;;;;12.20;1.90;;;9.90;99.90;;;;;;5090146;28;20402;-77
2022/05/08 05:43:20;;;;;;;10.17;1.50;;;9.90;99.90;;;;;;5090237;28;20395;-78
2022/05/08 05:47:49;;;;;;;9.07;1.85;;;10.00;99.90;;;;;;5088891;28;20402;-78
2022/05/08 05:48:35;;;;;;;10.15;1.65;;;10.00;99.90;;;;;;5088568;28;20413;-78
2022/05/08 05:51:00;;;;;;;8.95;1.80;;;10.10;99.90;;;;;;5090291;28;20461;-78
2022/05/08 05:53:26;;;;;;;11.80;1.90;;;10.10;99.90;;;;;;5107792;28;20435;-78
2022/05/08 05:55:51;;;;;;;8.68;1.70;;;10.20;99.90;;;;;;5110221;28;20389;-77
2022/05/08 05:58:17;;;;;;;8.07;1.80;;;10.20;99.90;;;;;;5110414;28;20396;-78
2022/05/08 06:00:42;;;;;;;9.30;1.43;;;10.20;99.90;;;;;;5110363;28;20403;-77
2022/05/08 06:03:08;;;;;;;9.27;1.37;;;10.20;99.90;;;;;;5091428;28;20457;-77
2022/05/08 06:05:33;;;;;;;9.43;1.53;;;10.30;99.90;;;;;;5109859;28;20456;-77
2022/05/08 06:07:59;;;;;;;11.27;1.63;;;10.30;99.90;;;;;;5109590;28;20436;-77
2022/05/08 06:10:24;;;;;;;10.83;1.80;;;10.30;99.90;;;;;;5109602;28;20432;-77
2022/05/08 06:12:50;;;;;;;10.20;1.80;;;10.40;99.90;;;;;;5109562;28;20396;-77
2022/05/08 06:15:16;;;;;;;11.60;1.93;;;10.30;99.90;;;;;;5110067;28;20396;-77
2022/05/08 06:17:41;;;;;;;10.40;1.90;;;10.30;99.90;;;;;;5088020;28;20479;-78
2022/05/08 06:20:07;;;;;;;8.80;1.57;;;10.20;99.90;;;;;;5108484;28;20778;-78
2022/05/08 06:22:33;;;;;;;8.60;1.80;;;10.20;99.90;;;;;;5108677;28;20411;-77
2022/05/08 06:24:59;;;;;;;9.63;1.77;;;10.30;99.90;;;;;;5107615;28;20445;-77
2022/05/08 06:27:25;;;;;;;10.02;1.88;;;10.50;99.90;;;;;;5108000;28;20457;-77
2022/05/08 06:29:51;;;;;;;10.73;1.80;;;10.60;99.90;;;;;;5108456;28;20424;-78
2022/05/08 06:32:16;;;;;;;12.13;2.23;;;10.70;99.90;;;;;;5106646;28;20431;-78
2022/05/08 06:34:42;;;;;;;11.57;1.73;;;10.80;99.90;;;;;;5084669;28;20434;-78
2022/05/08 06:37:08;;;;;;;9.90;1.47;;;10.90;99.90;;;;;;5107121;28;20439;-78
2022/05/08 06:39:34;;;;;;;8.25;1.40;;;10.90;99.90;;;;;;5085579;28;20437;-78
2022/05/08 06:42:00;;;;;;;10.77;2.00;;;10.90;99.90;;;;;;5107919;28;20404;-78
2022/05/08 06:44:25;;;;;;;11.80;1.83;;;10.90;99.90;;;;;;5103285;28;20443;-78
2022/05/08 06:46:51;;;;;;;11.10;1.80;;;10.90;99.90;;;;;;5107936;28;20404;-78
2022/05/08 06:49:16;;;;;;;9.88;1.60;;;11.00;99.90;;;;;;5107667;28;20415;-78
2022/05/08 06:51:44;;;;;;;8.93;2.00;;;11.00;99.90;;;;;;5107407;28;20424;-78
2022/05/08 06:54:10;;;;;;;10.38;1.80;;;11.00;99.90;;;;;;5103103;28;20396;-78
2022/05/08 06:56:36;;;;;;;11.17;1.90;;;11.10;99.90;;;;;;5107790;28;20557;-77
2022/05/08 07:01:48;;;;;;;10.02;2.00;;;11.10;99.90;;;;;;5082553;28;20422;-77
2022/05/08 07:04:13;;;;;;;8.63;1.53;;;11.20;99.90;;;;;;5107122;28;20403;-77
2022/05/08 07:06:40;;;;;;;10.68;1.92;;;11.20;99.90;;;;;;5107449;28;20393;-77
2022/05/08 07:09:07;;;;;;;13.85;2.10;;;11.20;99.90;;;;;;5107721;28;20400;-78
2022/05/08 07:11:32;;;;;;;10.85;2.03;;;11.20;99.90;;;;;;5103172;28;20424;-78
2022/05/08 07:13:59;;;;;;;11.27;1.67;;;11.20;99.90;;;;;;5086901;28;20439;-77
2022/05/08 07:16:25;;;;;;;10.60;1.80;;;11.30;99.90;;;;;;5106769;28;20396;-77
2022/05/08 07:18:51;;;;;;;8.30;1.80;;;11.40;99.90;;;;;;5106607;28;20400;-77
2022/05/08 07:21:18;;;;;;;14.90;1.87;;;11.50;99.90;;;;;;5106298;28;20404;-78
2022/05/08 07:23:43;;;;;;;8.73;2.10;;;11.70;99.90;;;;;;5106499;28;20514;-77
2022/05/08 07:26:09;;;;;;;7.95;1.50;;;11.80;99.90;;;;;;5101900;28;20418;-77
2022/05/08 07:28:34;;;;;;;12.00;1.60;;;11.90;99.90;;;;;;5106271;28;20430;-77
2022/05/08 07:31:02;;;;;;;12.52;2.05;;;12.00;99.90;;;;;;5105512;28;20432;-77
2022/05/08 07:33:29;;;;;;;8.15;1.75;;;12.10;99.90;;;;;;5105898;28;20420;-76
2022/05/08 07:36:12;;;;;;;13.10;1.90;;;12.10;99.90;;;;;;5087695;28;20400;-76
2022/05/08 07:38:42;;;;;;;10.48;1.98;;;12.10;99.90;;;;;;5106234;28;20404;-77
2022/05/08 07:41:10;;;;;;;11.38;1.90;;;12.10;99.90;;;;;;5102526;28;20412;-77
2022/05/08 07:43:35;;;;;;;10.80;1.85;;;12.10;99.90;;;;;;5106217;28;20400;-78
2022/05/08 07:46:01;;;;;;;11.80;2.20;;;12.00;99.70;;;;;;5070707;28;20746;-78
2022/05/08 07:48:27;;;;;;;9.43;1.70;;;11.90;99.40;;;;;;5087447;28;20605;-78
2022/05/08 07:50:53;;;;;;;14.15;1.95;;;11.80;99.50;;;;;;5105988;28;20430;-76
2022/05/08 07:53:18;;;;;;;8.98;1.63;;;11.70;99.50;;;;;;5106213;28;20388;-75
2022/05/08 07:55:51;;;;;;;10.70;2.00;;;11.60;99.40;;;;;;5107106;28;20953;-78
2022/05/08 07:58:17;;;;;;;10.93;2.10;;;11.60;99.60;;;;;;5081605;28;20410;-77
2022/05/08 08:00:43;;;;;;;10.10;1.98;;;11.60;99.90;;;;;;5084791;28;20485;-78
2022/05/08 08:03:08;;;;;;;10.93;1.53;;;11.50;99.90;;;;;;5106251;28;20469;-76
2022/05/08 08:05:34;;;;;;;8.52;1.55;;;11.60;99.70;;;;;;5086240;28;20414;-77
2022/05/08 08:08:00;;;;;;;13.07;2.30;;;11.70;99.70;;;;;;5085634;28;20469;-77
2022/05/08 08:10:25;;;;;;;10.50;2.10;;;11.90;99.90;;;;;;5072155;28;20434;-77
2022/05/08 08:12:51;;;;;;;12.67;2.03;;;12.00;99.30;;;;;;5102795;28;20762;-77
2022/05/08 08:15:16;;;;;;;8.75;1.70;;;12.00;98.90;;;;;;5107861;28;20396;-77
2022/05/08 08:17:42;;;;;;;12.90;2.13;;;12.00;99.20;;;;;;5088011;28;20451;-75
2022/05/08 08:20:08;;;;;;;9.60;2.07;;;12.00;99.10;;;;;;5097787;28;20408;-74
2022/05/08 08:22:34;;;;;;;13.07;1.80;;;12.10;99.00;;;;;;5108036;28;20468;-76
2022/05/08 08:25:00;;;;;;;10.98;2.30;;;12.30;98.90;;;;;;5087656;28;20402;-76
2022/05/08 08:27:27;;;;;;;11.43;2.07;;;12.40;99.20;;;;;;5107827;28;20400;-77
2022/05/08 08:29:54;;;;;;;11.43;2.30;;;12.40;98.10;;;;;;5108139;28;20520;-77
2022/05/08 08:32:21;;;;;;;14.25;2.22;;;12.40;98.40;;;;;;5107893;28;20407;-77
2022/05/08 08:34:48;;;;;;;11.93;2.00;;;12.30;98.50;;;;;;5107726;28;20407;-77
2022/05/08 08:37:13;;;;;;;12.17;1.83;;;12.20;98.60;;;;;;5107671;28;20400;-78
2022/05/08 08:39:39;;;;;;;9.40;2.20;;;12.10;98.10;;;;;;5107548;28;20441;-77
2022/05/08 08:42:28;;;;;;;11.63;2.20;;;12.00;98.50;;;;;;5098519;28;20923;-77
2022/05/08 08:48:09;;;;;;;11.05;2.13;;;12.00;98.40;;;;;;5093211;28;20436;-77
2022/05/08 08:50:35;;;;;;;8.90;1.75;;;12.10;98.30;;;;;;5082870;28;20435;-77
2022/05/08 08:53:05;;;;;;;11.47;1.90;;;12.20;98.20;;;;;;5088561;28;20789;-77
2022/05/08 08:55:32;;;;;;;9.30;1.80;;;12.20;97.90;;;;;;5106738;28;20931;-77
2022/05/08 08:57:58;;;;;;;12.18;1.80;;;12.30;97.40;;;;;;5087216;28;20456;-77
2022/05/08 09:00:24;;;;;;;11.45;1.80;;;12.40;97.40;;;;;;5108582;28;20501;-77
2022/05/08 09:02:53;;;;;;;10.43;1.85;;;12.50;97.30;;;;;;5107780;28;20495;-77
2022/05/08 09:05:19;;;;;;;9.63;2.10;;;12.70;97.60;;;;;;5109846;28;20411;-77
2022/05/08 09:07:49;;;;;;;10.63;2.10;;;12.90;97.00;;;;;;5110588;28;20999;-77
2022/05/08 09:10:22;;;;;;;12.03;1.97;;;13.00;97.00;;;;;;5108975;28;20696;-77
2022/05/08 09:12:57;;;;;;;9.13;1.83;;;13.10;97.30;;;;;;5111273;28;20401;-77
2022/05/08 09:15:37;;;;;;;10.68;2.00;;;13.20;97.70;;;;;;5110983;28;20420;-77
2022/05/08 09:18:07;;;;;;;11.18;1.83;;;13.30;96.80;;;;;;5092322;28;20462;-77
2022/05/08 09:20:41;;;;;;;13.82;2.25;;;13.50;96.10;;;;;;5108895;28;20880;-78
2022/05/08 09:23:15;;;;;;;10.90;2.22;;;13.50;96.10;;;;;;5090795;28;20435;-78
2022/05/08 09:25:52;;;;;;;8.95;1.67;;;13.70;95.50;;;;;;5075941;28;20944;-78
2022/05/08 09:28:19;;;;;;;11.98;2.28;;;14.10;95.50;;;;;;5109378;28;20416;-78
2022/05/08 09:31:04;;;;;;;11.40;1.92;;;14.60;95.10;;;;;;5111071;28;20435;-78
2022/05/08 09:33:35;;;;;;;10.65;2.10;;;15.00;93.30;;;;;;5091102;28;20907;-78
2022/05/08 09:36:10;;;;;;;10.32;1.88;;;15.30;93.40;;;;;;5110678;28;20409;-78
2022/05/08 09:38:53;;;;;;;8.35;1.63;;;15.70;92.50;;;;;;5107443;28;20421;-79
2022/05/08 09:41:26;;;;;;;10.27;1.80;;;15.90;92.00;;;;;;5072381;28;20406;-79
2022/05/08 09:43:56;;;;;;;10.07;1.90;;;16.10;91.20;;;;;;5104886;28;20427;-78
2022/05/08 09:46:23;;;;;;;8.48;2.00;;;16.40;91.20;;;;;;5110041;28;20408;-78
2022/05/08 09:48:49;;;;;;;13.18;2.65;;;16.50;90.50;;;;;;5090037;28;20416;-79
2022/05/08 09:51:16;;;;;;;11.00;1.80;;;16.70;90.80;;;;;;5110353;28;20904;-79
2022/05/08 09:53:43;;;;;;;9.40;2.08;;;17.10;91.10;;;;;;5089006;28;20470;-79
2022/05/08 09:56:10;;;;;;;8.25;1.90;;;17.30;88.90;;;;;;5110447;28;20404;-78
2022/05/08 09:58:39;;;;;;;10.45;2.20;;;17.40;88.60;;;;;;5108647;28;20437;-76
2022/05/08 10:01:05;;;;;;;9.70;2.20;;;17.50;87.50;;;;;;5109773;28;21258;-76
2022/05/08 10:03:31;;;;;;;8.38;1.90;;;17.70;87.90;;;;;;5108386;28;20424;-76
2022/05/08 10:06:00;;;;;;;9.40;1.60;;;17.90;86.80;;;;;;5090975;28;20415;-76
2022/05/08 10:08:33;;;;;;;9.77;2.05;;;18.00;84.50;;;;;;5109236;28;21415;-76
2022/05/08 10:13:56;;;;;;;8.23;1.65;;;18.10;84.60;;;;;;5106995;28;20474;-77
2022/05/08 10:16:56;;;;;;;10.65;2.08;;;18.10;83.00;;;;;;5107778;28;20756;-77
2022/05/08 10:19:27;;;;;;;11.20;2.30;;;18.00;78.80;;;;;;5089567;28;20409;-77
2022/05/08 10:21:56;;;;;;;10.52;1.80;;;18.10;82.10;;;;;;5089414;28;20429;-77
2022/05/08 10:24:46;;;;;;;7.95;1.70;;;18.30;78.10;;;;;;5089165;28;20405;-77
2022/05/08 10:27:17;;;;;;;7.68;1.67;;;18.30;80.30;;;;;;5088198;28;20430;-77
2022/05/08 10:30:02;;;;;;;9.75;1.83;;;18.50;81.50;;;;;;5088233;28;20760;-78
2022/05/08 10:32:28;;;;;;;9.93;2.08;;;18.70;78.70;;;;;;5089161;28;20434;-77
2022/05/08 10:35:03;;;;;;;11.87;2.20;;;18.70;77.00;;;;;;5087193;28;20445;-77
2022/05/08 10:37:29;;;;;;;9.90;2.00;;;18.80;78.80;;;;;;5087719;28;20448;-77
2022/05/08 10:39:56;;;;;;;8.13;1.73;;;18.80;76.30;;;;;;5088982;28;20437;-77
2022/05/08 10:42:28;;;;;;;10.45;2.00;;;18.80;74.60;;;;;;5087872;28;20899;-77
2022/05/08 10:44:54;;;;;;;8.48;1.75;;;18.80;73.70;;;;;;5087794;28;20415;-77
2022/05/08 10:47:32;;;;;;;8.05;1.80;;;18.80;76.10;;;;;;5087089;28;20482;-78
2022/05/08 10:50:09;;;;;;;9.32;2.08;;;18.90;75.10;;;;;;5087263;28;20447;-78
2022/05/08 10:52:45;;;;;;;10.30;2.00;;;19.00;75.20;;;;;;5088880;28;20405;-77
2022/05/08 10:55:14;;;;;;;8.95;2.00;;;19.10;73.80;;;;;;5088564;28;20405;-77
2022/05/08 10:57:41;;;;;;;8.77;1.52;;;19.10;74.10;;;;;;5088583;28;20488;-78
2022/05/08 11:00:09;;;;;;;8.95;2.08;;;19.20;72.30;;;;;;5097893;28;20414;-78
2022/05/08 11:02:50;;;;;;;10.88;1.90;;;19.20;71.50;;;;;;5109130;28;20500;-77
2022/05/08 11:05:21;;;;;;;9.18;1.73;;;19.20;73.10;;;;;;5108760;28;20412;-77
2022/05/08 11:08:10;;;;;;;9.05;1.70;;;19.20;71.00;;;;;;5090394;28;20407;-77
2022/05/08 11:10:40;;;;;;;8.38;2.00;;;19.20;71.00;;;;;;5090465;28;20428;-77
2022/05/08 11:13:12;;;;;;;7.00;1.67;;;19.30;70.00;;;;;;5108538;28;20411;-77
2022/05/08 11:15:45;;;;;;;8.85;1.70;;;19.40;70.20;;;;;;5090492;28;20758;-77
2022/05/08 11:18:14;;;;;;;7.32;1.73;;;19.50;71.20;;;;;;5108301;28;20412;-77
2022/05/08 11:20:53;;;;;;;9.43;1.67;;;19.40;70.00;;;;;;5108205;28;20401;-77
2022/05/08 11:23:21;;;;;;;9.13;1.80;;;19.50;70.50;;;;;;5089782;28;20412;-77
2022/05/08 11:25:54;;;;;;;7.33;1.77;;;19.50;70.40;;;;;;5108619;28;20397;-77
2022/05/08 11:28:24;;;;;;;7.32;1.80;;;19.70;70.40;;;;;;5108316;28;20811;-77
2022/05/08 11:30:51;;;;;;;9.30;1.95;;;19.80;69.70;;;;;;5108255;28;20455;-77
2022/05/08 11:36:06;;;;;;;10.18;1.90;;;20.10;67.40;;;;;;5108300;28;20401;-78
2022/05/08 11:38:51;;;;;;;8.25;2.08;;;20.00;66.90;;;;;;5108319;28;20396;-77
2022/05/08 11:41:26;;;;;;;10.70;1.92;;;19.90;69.70;;;;;;5108258;28;20419;-77
2022/05/08 11:43:53;;;;;;;8.43;2.00;;;19.90;67.20;;;;;;5107977;28;20404;-77
2022/05/08 11:46:31;;;;;;;8.60;1.75;;;19.80;68.10;;;;;;5089801;28;20405;-77
2022/05/08 11:48:57;;;;;;;10.43;2.10;;;19.80;67.00;;;;;;5107495;28;20411;-78
2022/05/08 11:51:22;;;;;;;9.83;1.90;;;19.90;66.70;;;;;;5107920;28;20417;-78
2022/05/08 11:53:53;;;;;;;9.70;2.13;;;19.80;66.70;;;;;;5107895;28;20412;-77
2022/05/08 11:56:26;;;;;;;11.40;1.95;;;19.90;64.80;;;;;;5108070;28;20458;-77
2022/05/08 11:58:53;;;;;;;10.52;2.30;;;19.90;66.90;;;;;;5107379;28;20475;-77
2022/05/08 12:01:34;;;;;;;11.45;2.28;;;20.00;65.60;;;;;;5108205;28;20966;-77
2022/05/08 12:04:21;;;;;;;8.38;2.08;;;20.10;66.30;;;;;;5089600;28;20461;-78
2022/05/08 12:07:02;;;;;;;9.40;2.00;;;20.30;67.50;;;;;;5089628;28;20412;-78
2022/05/08 12:09:31;;;;;;;9.35;1.92;;;20.40;65.90;;;;;;5108118;28;20440;-78
2022/05/08 12:12:16;;;;;;;10.23;1.90;;;20.30;66.00;;;;;;5108014;28;20463;-77
2022/05/08 12:14:42;;;;;;;9.55;1.90;;;20.30;65.10;;;;;;5108299;28;20392;-78
2022/05/08 12:17:07;;;;;;;8.90;2.10;;;20.20;65.90;;;;;;5107612;28;20446;-78
2022/05/08 12:19:33;;;;;;;11.40;1.90;;;20.20;66.90;;;;;;5107617;28;20399;-78
2022/05/08 12:22:16;;;;;;;9.57;1.90;;;20.50;65.50;;;;;;5107368;28;20492;-78
2022/05/08 12:24:42;;;;;;;10.53;2.13;;;20.60;64.00;;;;;;5106672;28;20419;-77
2022/05/08 12:27:07;;;;;;;9.25;1.92;;;20.50;64.80;;;;;;5101054;28;20774;-77
2022/05/08 12:29:33;;;;;;;10.27;2.20;;;20.60;64.10;;;;;;5106439;28;21145;-76
2022/05/08 12:31:58;;;;;;;9.40;1.90;;;20.50;64.30;;;;;;5106615;28;20491;-76
2022/05/08 12:34:24;;;;;;;9.55;1.98;;;20.50;62.00;;;;;;5082138;28;20463;-76
2022/05/08 12:36:51;;;;;;;7.37;2.00;;;20.30;64.40;;;;;;5108664;28;20428;-76
2022/05/08 12:39:19;;;;;;;9.60;2.30;;;20.40;64.30;;;;;;5090446;28;20519;-77
2022/05/08 12:41:45;;;;;;;8.00;1.90;;;20.60;65.50;;;;;;5110915;28;20404;-77
2022/05/08 12:44:12;;;;;;;9.40;1.80;;;20.90;65.60;;;;;;5110231;28;20454;-76
2022/05/08 12:46:38;;;;;;;10.38;1.92;;;21.00;62.00;;;;;;5109813;28;20412;-77
2022/05/08 12:49:04;;;;;;;9.20;1.90;;;20.80;61.60;;;;;;5110838;28;20461;-77
2022/05/08 12:51:32;;;;;;;11.05;2.05;;;20.80;62.70;;;;;;5089317;28;20442;-77
2022/05/08 12:53:58;;;;;;;9.20;2.10;;;20.80;63.20;;;;;;5110131;28;21095;-77
2022/05/08 12:56:25;;;;;;;8.93;1.77;;;21.00;63.00;;;;;;5109314;28;20414;-76
2022/05/08 13:01:35;;;;;;;8.43;1.80;;;21.00;60.70;;;;;;5108336;28;20416;-77
2022/05/08 13:04:02;;;;;;;9.95;2.17;;;21.10;62.70;;;;;;5110202;28;20948;-77
2022/05/08 13:06:28;;;;;;;9.70;2.30;;;21.30;61.80;;;;;;5092672;28;20423;-77
2022/05/08 13:08:53;;;;;;;9.53;2.13;;;21.40;61.50;;;;;;5092804;28;20404;-77
2022/05/08 13:11:19;;;;;;;8.82;1.63;;;21.40;59.80;;;;;;5110357;28;20430;-77
2022/05/08 13:13:44;;;;;;;7.25;1.85;;;21.20;60.90;;;;;;5111478;28;20421;-77